sensor_id;sensor_type;location;lat;lon;timestamp;P1;durP1;ratioP1;P2;durP2;ratioP2
25810;SDS011;13645;52.460;13.910;2023-09-18T00:01:03;11.48;;;7.15;;
25810;SDS011;13645;52.460;13.910;2023-09-18T00:03:31;11.55;;;8.23;;
25810;SDS011;13645;52.460;13.910;2023-09-18T00:05:58;13.15;;;7.88;;
25810;SDS011;13645;52.460;13.910;2023-09-18T00:08:25;9.73;;;7.93;;
25810;SDS011;13645;52.460;13.910;2023-09-18T00:10:53;15.10;;;7.93;;
25810;SDS011;13645;52.460;13.910;2023-09-18T00:13:20;12.63;;;7.15;;
25810;SDS011;13645;52.460;13.910;2023-09-18T00:15:48;8.43;;;7.22;;
25810;SDS011;13645;52.460;13.910;2023-09-18T00:18:15;10.23;;;7.03;;
25810;SDS011;13645;52.460;13.910;2023-09-18T00:20:43;9.10;;;7.15;;
25810;SDS011;13645;52.460;13.910;2023-09-18T00:23:10;10.18;;;7.78;;
25810;SDS011;13645;52.460;13.910;2023-09-18T00:25:36;10.70;;;7.55;;
25810;SDS011;13645;52.460;13.910;2023-09-18T00:28:03;9.50;;;8.25;;
25810;SDS011;13645;52.460;13.910;2023-09-18T00:30:30;10.30;;;7.38;;
25810;SDS011;13645;52.460;13.910;2023-09-18T00:32:57;11.75;;;7.55;;
25810;SDS011;13645;52.460;13.910;2023-09-18T00:35:24;14.73;;;7.97;;
25810;SDS011;13645;52.460;13.910;2023-09-18T00:37:51;9.95;;;7.60;;
25810;SDS011;13645;52.460;13.910;2023-09-18T00:40:18;9.40;;;7.70;;
25810;SDS011;13645;52.460;13.910;2023-09-18T00:42:45;9.93;;;7.68;;
25810;SDS011;13645;52.460;13.910;2023-09-18T00:45:12;12.20;;;7.53;;
25810;SDS011;13645;52.460;13.910;2023-09-18T00:47:39;8.85;;;7.47;;
25810;SDS011;13645;52.460;13.910;2023-09-18T00:50:06;12.52;;;7.30;;
25810;SDS011;13645;52.460;13.910;2023-09-18T00:52:35;11.35;;;7.30;;
25810;SDS011;13645;52.460;13.910;2023-09-18T00:55:02;9.88;;;7.18;;
25810;SDS011;13645;52.460;13.910;2023-09-18T00:57:29;11.27;;;7.35;;
25810;SDS011;13645;52.460;13.910;2023-09-18T00:59:56;12.65;;;8.02;;
25810;SDS011;13645;52.460;13.910;2023-09-18T01:02:23;9.50;;;7.00;;
25810;SDS011;13645;52.460;13.910;2023-09-18T01:04:50;11.13;;;7.82;;
25810;SDS011;13645;52.460;13.910;2023-09-18T01:07:16;9.40;;;7.30;;
25810;SDS011;13645;52.460;13.910;2023-09-18T01:09:44;8.95;;;7.60;;
25810;SDS011;13645;52.460;13.910;2023-09-18T01:12:13;9.15;;;7.15;;
25810;SDS011;13645;52.460;13.910;2023-09-18T01:17:38;13.48;;;7.10;;
25810;SDS011;13645;52.460;13.910;2023-09-18T01:20:10;8.98;;;6.82;;
25810;SDS011;13645;52.460;13.910;2023-09-18T01:22:38;9.85;;;6.65;;
25810;SDS011;13645;52.460;13.910;2023-09-18T01:25:05;13.65;;;7.32;;
25810;SDS011;13645;52.460;13.910;2023-09-18T01:27:33;7.95;;;6.90;;
25810;SDS011;13645;52.460;13.910;2023-09-18T01:30:00;8.20;;;7.00;;
25810;SDS011;13645;52.460;13.910;2023-09-18T01:32:27;10.02;;;6.88;;
25810;SDS011;13645;52.460;13.910;2023-09-18T01:34:59;11.23;;;7.55;;
25810;SDS011;13645;52.460;13.910;2023-09-18T01:37:29;8.90;;;6.75;;
25810;SDS011;13645;52.460;13.910;2023-09-18T01:39:57;8.70;;;6.97;;
25810;SDS011;13645;52.460;13.910;2023-09-18T01:42:26;9.68;;;7.15;;
25810;SDS011;13645;52.460;13.910;2023-09-18T01:44:53;10.52;;;7.25;;
25810;SDS011;13645;52.460;13.910;2023-09-18T01:47:35;8.35;;;7.38;;
25810;SDS011;13645;52.460;13.910;2023-09-18T01:50:03;10.20;;;7.20;;
25810;SDS011;13645;52.460;13.910;2023-09-18T01:52:33;12.85;;;7.75;;
25810;SDS011;13645;52.460;13.910;2023-09-18T01:55:01;8.55;;;6.90;;
25810;SDS011;13645;52.460;13.910;2023-09-18T01:57:30;11.00;;;7.88;;
25810;SDS011;13645;52.460;13.910;2023-09-18T01:59:57;10.45;;;7.57;;
25810;SDS011;13645;52.460;13.910;2023-09-18T02:02:24;10.45;;;7.55;;
25810;SDS011;13645;52.460;13.910;2023-09-18T02:05:11;10.60;;;6.90;;
25810;SDS011;13645;52.460;13.910;2023-09-18T02:07:38;7.28;;;6.20;;
25810;SDS011;13645;52.460;13.910;2023-09-18T02:10:05;11.05;;;7.00;;
25810;SDS011;13645;52.460;13.910;2023-09-18T02:12:33;10.80;;;7.15;;
25810;SDS011;13645;52.460;13.910;2023-09-18T02:15:00;7.90;;;7.10;;
25810;SDS011;13645;52.460;13.910;2023-09-18T02:17:30;9.45;;;6.82;;
25810;SDS011;13645;52.460;13.910;2023-09-18T02:19:57;11.00;;;7.75;;
25810;SDS011;13645;52.460;13.910;2023-09-18T02:22:26;8.32;;;6.85;;
25810;SDS011;13645;52.460;13.910;2023-09-18T02:24:52;9.38;;;7.63;;
25810;SDS011;13645;52.460;13.910;2023-09-18T02:27:19;10.77;;;7.07;;
25810;SDS011;13645;52.460;13.910;2023-09-18T02:29:47;10.45;;;7.53;;
25810;SDS011;13645;52.460;13.910;2023-09-18T02:32:16;10.00;;;7.25;;
25810;SDS011;13645;52.460;13.910;2023-09-18T02:34:42;11.25;;;7.43;;
25810;SDS011;13645;52.460;13.910;2023-09-18T02:37:09;9.10;;;6.65;;
25810;SDS011;13645;52.460;13.910;2023-09-18T02:39:36;12.38;;;7.05;;
25810;SDS011;13645;52.460;13.910;2023-09-18T02:42:03;9.43;;;7.97;;
25810;SDS011;13645;52.460;13.910;2023-09-18T02:44:30;8.38;;;6.97;;
25810;SDS011;13645;52.460;13.910;2023-09-18T02:46:57;9.65;;;7.10;;
25810;SDS011;13645;52.460;13.910;2023-09-18T02:49:23;9.82;;;7.03;;
25810;SDS011;13645;52.460;13.910;2023-09-18T02:51:50;7.90;;;7.10;;
25810;SDS011;13645;52.460;13.910;2023-09-18T02:54:17;11.98;;;7.55;;
25810;SDS011;13645;52.460;13.910;2023-09-18T02:56:44;7.80;;;7.00;;
25810;SDS011;13645;52.460;13.910;2023-09-18T02:59:10;11.73;;;7.30;;
25810;SDS011;13645;52.460;13.910;2023-09-18T03:01:37;9.93;;;7.53;;
25810;SDS011;13645;52.460;13.910;2023-09-18T03:04:04;9.23;;;6.50;;
25810;SDS011;13645;52.460;13.910;2023-09-18T03:06:31;10.60;;;6.95;;
25810;SDS011;13645;52.460;13.910;2023-09-18T03:08:58;10.25;;;6.95;;
25810;SDS011;13645;52.460;13.910;2023-09-18T03:11:24;11.15;;;6.82;;
25810;SDS011;13645;52.460;13.910;2023-09-18T03:13:54;10.55;;;7.00;;
25810;SDS011;13645;52.460;13.910;2023-09-18T03:16:21;7.43;;;6.32;;
25810;SDS011;13645;52.460;13.910;2023-09-18T03:18:49;9.10;;;7.35;;
25810;SDS011;13645;52.460;13.910;2023-09-18T03:21:16;7.85;;;6.57;;
25810;SDS011;13645;52.460;13.910;2023-09-18T03:23:43;10.57;;;6.88;;
25810;SDS011;13645;52.460;13.910;2023-09-18T03:26:09;7.60;;;6.63;;
25810;SDS011;13645;52.460;13.910;2023-09-18T03:28:37;9.63;;;7.05;;
25810;SDS011;13645;52.460;13.910;2023-09-18T03:31:04;11.50;;;7.25;;
25810;SDS011;13645;52.460;13.910;2023-09-18T03:33:33;7.53;;;6.72;;
25810;SDS011;13645;52.460;13.910;2023-09-18T03:35:59;8.52;;;7.30;;
25810;SDS011;13645;52.460;13.910;2023-09-18T03:38:26;11.32;;;6.93;;
25810;SDS011;13645;52.460;13.910;2023-09-18T03:40:53;7.90;;;6.70;;
25810;SDS011;13645;52.460;13.910;2023-09-18T03:43:20;9.20;;;6.82;;
25810;SDS011;13645;52.460;13.910;2023-09-18T03:45:47;10.52;;;6.80;;
25810;SDS011;13645;52.460;13.910;2023-09-18T03:48:14;8.80;;;6.55;;
25810;SDS011;13645;52.460;13.910;2023-09-18T03:50:41;7.05;;;6.15;;
25810;SDS011;13645;52.460;13.910;2023-09-18T03:53:09;10.02;;;6.72;;
25810;SDS011;13645;52.460;13.910;2023-09-18T03:55:36;8.30;;;6.32;;
25810;SDS011;13645;52.460;13.910;2023-09-18T03:58:04;13.25;;;7.22;;
25810;SDS011;13645;52.460;13.910;2023-09-18T04:00:31;9.65;;;6.47;;
25810;SDS011;13645;52.460;13.910;2023-09-18T04:02:58;8.23;;;6.93;;
25810;SDS011;13645;52.460;13.910;2023-09-18T04:05:25;9.45;;;7.15;;
25810;SDS011;13645;52.460;13.910;2023-09-18T04:07:52;11.73;;;6.90;;
25810;SDS011;13645;52.460;13.910;2023-09-18T04:10:18;7.40;;;6.70;;
25810;SDS011;13645;52.460;13.910;2023-09-18T04:12:50;9.25;;;6.57;;
25810;SDS011;13645;52.460;13.910;2023-09-18T04:15:17;12.23;;;7.18;;
25810;SDS011;13645;52.460;13.910;2023-09-18T04:17:45;11.32;;;6.43;;
25810;SDS011;13645;52.460;13.910;2023-09-18T04:20:12;7.97;;;6.95;;
25810;SDS011;13645;52.460;13.910;2023-09-18T04:22:43;8.05;;;6.50;;
25810;SDS011;13645;52.460;13.910;2023-09-18T04:25:11;8.88;;;6.90;;
25810;SDS011;13645;52.460;13.910;2023-09-18T04:27:38;8.70;;;6.85;;
25810;SDS011;13645;52.460;13.910;2023-09-18T04:30:06;9.82;;;6.90;;
25810;SDS011;13645;52.460;13.910;2023-09-18T04:32:36;8.43;;;7.18;;
25810;SDS011;13645;52.460;13.910;2023-09-18T04:35:04;9.82;;;7.07;;
25810;SDS011;13645;52.460;13.910;2023-09-18T04:37:35;7.82;;;6.35;;
25810;SDS011;13645;52.460;13.910;2023-09-18T04:40:07;7.53;;;6.47;;
25810;SDS011;13645;52.460;13.910;2023-09-18T04:42:38;8.10;;;6.75;;
25810;SDS011;13645;52.460;13.910;2023-09-18T04:45:06;11.38;;;6.70;;
25810;SDS011;13645;52.460;13.910;2023-09-18T04:47:33;12.15;;;6.68;;
25810;SDS011;13645;52.460;13.910;2023-09-18T04:50:00;9.15;;;6.80;;
25810;SDS011;13645;52.460;13.910;2023-09-18T04:55:01;6.97;;;6.28;;
25810;SDS011;13645;52.460;13.910;2023-09-18T04:57:29;7.38;;;5.97;;
25810;SDS011;13645;52.460;13.910;2023-09-18T04:59:55;9.20;;;6.72;;
25810;SDS011;13645;52.460;13.910;2023-09-18T05:02:41;9.80;;;6.18;;
25810;SDS011;13645;52.460;13.910;2023-09-18T05:05:08;7.93;;;6.43;;
25810;SDS011;13645;52.460;13.910;2023-09-18T05:07:35;8.40;;;7.00;;
25810;SDS011;13645;52.460;13.910;2023-09-18T05:10:03;9.02;;;6.75;;
25810;SDS011;13645;52.460;13.910;2023-09-18T05:12:31;12.20;;;6.95;;
25810;SDS011;13645;52.460;13.910;2023-09-18T05:14:58;8.95;;;7.05;;
25810;SDS011;13645;52.460;13.910;2023-09-18T05:17:38;12.93;;;6.72;;
25810;SDS011;13645;52.460;13.910;2023-09-18T05:20:10;7.90;;;6.00;;
25810;SDS011;13645;52.460;13.910;2023-09-18T05:22:39;8.35;;;7.00;;
25810;SDS011;13645;52.460;13.910;2023-09-18T05:25:06;7.78;;;6.47;;
25810;SDS011;13645;52.460;13.910;2023-09-18T05:27:36;11.93;;;7.25;;
25810;SDS011;13645;52.460;13.910;2023-09-18T05:32:41;7.97;;;6.45;;
25810;SDS011;13645;52.460;13.910;2023-09-18T05:35:09;8.10;;;7.00;;
25810;SDS011;13645;52.460;13.910;2023-09-18T05:37:39;7.10;;;6.38;;
25810;SDS011;13645;52.460;13.910;2023-09-18T05:40:06;7.22;;;6.53;;
25810;SDS011;13645;52.460;13.910;2023-09-18T05:42:37;9.82;;;7.03;;
25810;SDS011;13645;52.460;13.910;2023-09-18T05:45:05;9.23;;;7.03;;
25810;SDS011;13645;52.460;13.910;2023-09-18T05:47:32;8.50;;;6.30;;
25810;SDS011;13645;52.460;13.910;2023-09-18T05:50:02;7.70;;;6.68;;
25810;SDS011;13645;52.460;13.910;2023-09-18T05:52:30;8.23;;;6.82;;
25810;SDS011;13645;52.460;13.910;2023-09-18T05:54:57;8.35;;;6.72;;
25810;SDS011;13645;52.460;13.910;2023-09-18T05:57:23;12.48;;;7.05;;
25810;SDS011;13645;52.460;13.910;2023-09-18T05:59:50;7.97;;;6.57;;
25810;SDS011;13645;52.460;13.910;2023-09-18T06:02:17;8.18;;;6.85;;
25810;SDS011;13645;52.460;13.910;2023-09-18T06:04:44;11.52;;;6.60;;
25810;SDS011;13645;52.460;13.910;2023-09-18T06:07:11;15.45;;;6.45;;
25810;SDS011;13645;52.460;13.910;2023-09-18T06:09:39;12.48;;;6.35;;
25810;SDS011;13645;52.460;13.910;2023-09-18T06:12:06;8.82;;;6.45;;
25810;SDS011;13645;52.460;13.910;2023-09-18T06:14:33;11.07;;;6.22;;
25810;SDS011;13645;52.460;13.910;2023-09-18T06:17:01;7.53;;;6.10;;
25810;SDS011;13645;52.460;13.910;2023-09-18T06:19:28;9.07;;;6.00;;
25810;SDS011;13645;52.460;13.910;2023-09-18T06:21:55;7.75;;;6.07;;
25810;SDS011;13645;52.460;13.910;2023-09-18T06:24:21;8.55;;;5.95;;
25810;SDS011;13645;52.460;13.910;2023-09-18T06:26:48;9.52;;;5.72;;
25810;SDS011;13645;52.460;13.910;2023-09-18T06:29:17;6.30;;;5.60;;
25810;SDS011;13645;52.460;13.910;2023-09-18T06:31:43;7.50;;;5.75;;
25810;SDS011;13645;52.460;13.910;2023-09-18T06:34:10;8.20;;;5.68;;
25810;SDS011;13645;52.460;13.910;2023-09-18T06:36:37;7.10;;;6.03;;
25810;SDS011;13645;52.460;13.910;2023-09-18T06:39:04;16.83;;;6.30;;
25810;SDS011;13645;52.460;13.910;2023-09-18T06:41:32;7.68;;;5.50;;
25810;SDS011;13645;52.460;13.910;2023-09-18T06:44:00;8.48;;;5.57;;
25810;SDS011;13645;52.460;13.910;2023-09-18T06:46:29;6.93;;;5.32;;
25810;SDS011;13645;52.460;13.910;2023-09-18T06:48:56;6.70;;;5.35;;
25810;SDS011;13645;52.460;13.910;2023-09-18T06:51:23;6.55;;;5.28;;
25810;SDS011;13645;52.460;13.910;2023-09-18T06:54:08;9.02;;;5.10;;
25810;SDS011;13645;52.460;13.910;2023-09-18T06:56:35;9.73;;;4.88;;
25810;SDS011;13645;52.460;13.910;2023-09-18T06:59:02;10.40;;;5.07;;
25810;SDS011;13645;52.460;13.910;2023-09-18T07:01:29;7.30;;;5.18;;
25810;SDS011;13645;52.460;13.910;2023-09-18T07:03:57;9.43;;;5.07;;
25810;SDS011;13645;52.460;13.910;2023-09-18T07:06:26;6.38;;;5.03;;
25810;SDS011;13645;52.460;13.910;2023-09-18T07:08:54;7.97;;;5.15;;
25810;SDS011;13645;52.460;13.910;2023-09-18T07:11:21;7.32;;;5.13;;
25810;SDS011;13645;52.460;13.910;2023-09-18T07:13:51;6.05;;;5.00;;
25810;SDS011;13645;52.460;13.910;2023-09-18T07:16:18;6.47;;;4.55;;
25810;SDS011;13645;52.460;13.910;2023-09-18T07:18:45;8.15;;;4.43;;
25810;SDS011;13645;52.460;13.910;2023-09-18T07:21:12;8.02;;;4.72;;
25810;SDS011;13645;52.460;13.910;2023-09-18T07:23:39;5.35;;;4.55;;
25810;SDS011;13645;52.460;13.910;2023-09-18T07:26:07;7.47;;;5.03;;
25810;SDS011;13645;52.460;13.910;2023-09-18T07:28:34;9.55;;;4.47;;
25810;SDS011;13645;52.460;13.910;2023-09-18T07:31:07;6.78;;;4.55;;
25810;SDS011;13645;52.460;13.910;2023-09-18T07:33:35;5.72;;;4.35;;
25810;SDS011;13645;52.460;13.910;2023-09-18T07:36:02;4.88;;;4.38;;
25810;SDS011;13645;52.460;13.910;2023-09-18T07:38:29;4.82;;;4.25;;
25810;SDS011;13645;52.460;13.910;2023-09-18T07:40:57;5.70;;;4.22;;
25810;SDS011;13645;52.460;13.910;2023-09-18T07:43:24;6.25;;;4.60;;
25810;SDS011;13645;52.460;13.910;2023-09-18T07:45:52;5.28;;;4.10;;
25810;SDS011;13645;52.460;13.910;2023-09-18T07:48:21;6.68;;;4.38;;
25810;SDS011;13645;52.460;13.910;2023-09-18T07:50:49;5.63;;;4.35;;
25810;SDS011;13645;52.460;13.910;2023-09-18T07:53:17;6.88;;;4.22;;
25810;SDS011;13645;52.460;13.910;2023-09-18T07:55:45;5.55;;;4.40;;
25810;SDS011;13645;52.460;13.910;2023-09-18T07:58:12;5.78;;;4.03;;
25810;SDS011;13645;52.460;13.910;2023-09-18T08:00:40;5.00;;;4.50;;
25810;SDS011;13645;52.460;13.910;2023-09-18T08:03:06;9.70;;;4.15;;
25810;SDS011;13645;52.460;13.910;2023-09-18T08:05:33;6.28;;;4.30;;
25810;SDS011;13645;52.460;13.910;2023-09-18T08:08:00;4.70;;;4.00;;
25810;SDS011;13645;52.460;13.910;2023-09-18T08:10:31;4.50;;;3.85;;
25810;SDS011;13645;52.460;13.910;2023-09-18T08:12:58;6.60;;;4.15;;
25810;SDS011;13645;52.460;13.910;2023-09-18T08:15:25;8.68;;;4.78;;
25810;SDS011;13645;52.460;13.910;2023-09-18T08:17:52;5.40;;;4.43;;
25810;SDS011;13645;52.460;13.910;2023-09-18T08:20:19;12.00;;;4.45;;
25810;SDS011;13645;52.460;13.910;2023-09-18T08:22:46;7.93;;;4.10;;
25810;SDS011;13645;52.460;13.910;2023-09-18T08:25:14;6.55;;;4.18;;
25810;SDS011;13645;52.460;13.910;2023-09-18T08:27:41;5.20;;;3.90;;
25810;SDS011;13645;52.460;13.910;2023-09-18T08:30:11;6.45;;;4.03;;
25810;SDS011;13645;52.460;13.910;2023-09-18T08:32:39;6.75;;;4.38;;
25810;SDS011;13645;52.460;13.910;2023-09-18T08:35:07;6.28;;;4.13;;
25810;SDS011;13645;52.460;13.910;2023-09-18T08:37:35;6.25;;;3.97;;
25810;SDS011;13645;52.460;13.910;2023-09-18T08:40:01;7.78;;;3.97;;
25810;SDS011;13645;52.460;13.910;2023-09-18T08:42:38;8.60;;;3.80;;
25810;SDS011;13645;52.460;13.910;2023-09-18T08:45:08;4.03;;;3.58;;
25810;SDS011;13645;52.460;13.910;2023-09-18T08:47:37;4.88;;;3.05;;
25810;SDS011;13645;52.460;13.910;2023-09-18T08:50:08;8.30;;;3.65;;
25810;SDS011;13645;52.460;13.910;2023-09-18T08:52:36;4.63;;;3.60;;
25810;SDS011;13645;52.460;13.910;2023-09-18T08:55:04;5.07;;;3.50;;
25810;SDS011;13645;52.460;13.910;2023-09-18T08:57:35;4.10;;;3.00;;
25810;SDS011;13645;52.460;13.910;2023-09-18T09:00:04;5.35;;;3.00;;
25810;SDS011;13645;52.460;13.910;2023-09-18T09:02:34;8.45;;;3.40;;
25810;SDS011;13645;52.460;13.910;2023-09-18T09:05:01;8.55;;;3.20;;
25810;SDS011;13645;52.460;13.910;2023-09-18T09:07:28;6.85;;;3.25;;
25810;SDS011;13645;52.460;13.910;2023-09-18T09:09:57;4.43;;;2.97;;
25810;SDS011;13645;52.460;13.910;2023-09-18T09:15:14;5.40;;;3.05;;
25810;SDS011;13645;52.460;13.910;2023-09-18T09:17:44;4.68;;;3.03;;
25810;SDS011;13645;52.460;13.910;2023-09-18T09:20:12;4.55;;;3.00;;
25810;SDS011;13645;52.460;13.910;2023-09-18T09:22:40;3.13;;;2.42;;
25810;SDS011;13645;52.460;13.910;2023-09-18T09:27:47;8.23;;;2.50;;
25810;SDS011;13645;52.460;13.910;2023-09-18T09:30:21;3.17;;;2.78;;
25810;SDS011;13645;52.460;13.910;2023-09-18T09:32:50;6.05;;;2.38;;
25810;SDS011;13645;52.460;13.910;2023-09-18T09:35:22;3.33;;;2.85;;
25810;SDS011;13645;52.460;13.910;2023-09-18T09:37:57;4.22;;;2.88;;
25810;SDS011;13645;52.460;13.910;2023-09-18T09:40:28;4.70;;;2.58;;
25810;SDS011;13645;52.460;13.910;2023-09-18T09:42:56;3.20;;;2.45;;
25810;SDS011;13645;52.460;13.910;2023-09-18T09:45:28;6.38;;;2.38;;
25810;SDS011;13645;52.460;13.910;2023-09-18T09:47:57;3.88;;;2.50;;
25810;SDS011;13645;52.460;13.910;2023-09-18T09:50:24;6.28;;;2.40;;
25810;SDS011;13645;52.460;13.910;2023-09-18T09:52:53;3.97;;;2.50;;
25810;SDS011;13645;52.460;13.910;2023-09-18T09:55:28;4.40;;;2.38;;
25810;SDS011;13645;52.460;13.910;2023-09-18T09:57:57;6.97;;;2.67;;
25810;SDS011;13645;52.460;13.910;2023-09-18T10:00:26;5.65;;;2.42;;
25810;SDS011;13645;52.460;13.910;2023-09-18T10:03:13;4.93;;;2.88;;
25810;SDS011;13645;52.460;13.910;2023-09-18T10:05:45;7.40;;;2.60;;
25810;SDS011;13645;52.460;13.910;2023-09-18T10:08:24;3.03;;;2.60;;
25810;SDS011;13645;52.460;13.910;2023-09-18T10:10:55;2.88;;;2.60;;
25810;SDS011;13645;52.460;13.910;2023-09-18T10:13:27;3.20;;;2.33;;
25810;SDS011;13645;52.460;13.910;2023-09-18T10:15:59;4.25;;;2.28;;
25810;SDS011;13645;52.460;13.910;2023-09-18T10:18:38;4.72;;;2.40;;
25810;SDS011;13645;52.460;13.910;2023-09-18T10:21:26;5.10;;;2.42;;
25810;SDS011;13645;52.460;13.910;2023-09-18T10:26:35;4.38;;;2.67;;
25810;SDS011;13645;52.460;13.910;2023-09-18T10:29:10;4.00;;;2.38;;
25810;SDS011;13645;52.460;13.910;2023-09-18T10:31:39;4.72;;;2.47;;
25810;SDS011;13645;52.460;13.910;2023-09-18T10:34:07;5.38;;;2.63;;
25810;SDS011;13645;52.460;13.910;2023-09-18T10:36:34;4.00;;;2.53;;
25810;SDS011;13645;52.460;13.910;2023-09-18T10:39:03;8.63;;;2.58;;
25810;SDS011;13645;52.460;13.910;2023-09-18T10:41:34;5.30;;;2.90;;
25810;SDS011;13645;52.460;13.910;2023-09-18T10:44:03;6.32;;;2.20;;
25810;SDS011;13645;52.460;13.910;2023-09-18T10:46:31;3.55;;;2.40;;
25810;SDS011;13645;52.460;13.910;2023-09-18T10:48:59;3.72;;;2.28;;
25810;SDS011;13645;52.460;13.910;2023-09-18T10:51:27;3.72;;;2.50;;
25810;SDS011;13645;52.460;13.910;2023-09-18T10:53:56;7.10;;;2.40;;
25810;SDS011;13645;52.460;13.910;2023-09-18T10:56:23;2.60;;;2.40;;
25810;SDS011;13645;52.460;13.910;2023-09-18T10:59:00;5.70;;;2.50;;
25810;SDS011;13645;52.460;13.910;2023-09-18T11:01:32;2.92;;;2.38;;
25810;SDS011;13645;52.460;13.910;2023-09-18T11:04:06;4.53;;;2.95;;
25810;SDS011;13645;52.460;13.910;2023-09-18T11:09:21;6.03;;;2.75;;
25810;SDS011;13645;52.460;13.910;2023-09-18T11:17:36;3.92;;;2.78;;
25810;SDS011;13645;52.460;13.910;2023-09-18T11:22:39;6.70;;;3.10;;
25810;SDS011;13645;52.460;13.910;2023-09-18T11:28:01;5.05;;;3.00;;
25810;SDS011;13645;52.460;13.910;2023-09-18T11:30:29;5.53;;;2.70;;
25810;SDS011;13645;52.460;13.910;2023-09-18T11:32:56;6.28;;;2.97;;
25810;SDS011;13645;52.460;13.910;2023-09-18T11:35:23;7.50;;;2.88;;
25810;SDS011;13645;52.460;13.910;2023-09-18T11:38:05;11.48;;;2.75;;
25810;SDS011;13645;52.460;13.910;2023-09-18T11:40:34;5.25;;;2.90;;
25810;SDS011;13645;52.460;13.910;2023-09-18T11:45:58;5.50;;;2.80;;
25810;SDS011;13645;52.460;13.910;2023-09-18T11:48:26;7.55;;;2.90;;
25810;SDS011;13645;52.460;13.910;2023-09-18T11:51:02;6.03;;;2.85;;
25810;SDS011;13645;52.460;13.910;2023-09-18T11:53:33;3.35;;;2.63;;
25810;SDS011;13645;52.460;13.910;2023-09-18T11:56:02;5.32;;;2.92;;
25810;SDS011;13645;52.460;13.910;2023-09-18T11:58:30;6.97;;;3.20;;
25810;SDS011;13645;52.460;13.910;2023-09-18T12:00:56;3.80;;;2.78;;
25810;SDS011;13645;52.460;13.910;2023-09-18T12:03:38;4.97;;;2.85;;
25810;SDS011;13645;52.460;13.910;2023-09-18T12:06:05;8.07;;;3.28;;
25810;SDS011;13645;52.460;13.910;2023-09-18T12:08:32;4.72;;;2.72;;
25810;SDS011;13645;52.460;13.910;2023-09-18T12:11:00;7.95;;;3.05;;
25810;SDS011;13645;52.460;13.910;2023-09-18T12:13:32;4.85;;;2.80;;
25810;SDS011;13645;52.460;13.910;2023-09-18T12:16:00;6.68;;;3.17;;
25810;SDS011;13645;52.460;13.910;2023-09-18T12:18:33;5.35;;;3.17;;
25810;SDS011;13645;52.460;13.910;2023-09-18T12:21:05;7.28;;;2.90;;
25810;SDS011;13645;52.460;13.910;2023-09-18T12:23:42;5.65;;;2.95;;
25810;SDS011;13645;52.460;13.910;2023-09-18T12:26:10;10.82;;;3.10;;
25810;SDS011;13645;52.460;13.910;2023-09-18T12:28:41;5.68;;;2.97;;
25810;SDS011;13645;52.460;13.910;2023-09-18T12:31:12;5.70;;;3.30;;
25810;SDS011;13645;52.460;13.910;2023-09-18T12:33:40;4.38;;;3.20;;
25810;SDS011;13645;52.460;13.910;2023-09-18T12:36:10;7.15;;;3.10;;
25810;SDS011;13645;52.460;13.910;2023-09-18T12:38:38;5.18;;;2.90;;
25810;SDS011;13645;52.460;13.910;2023-09-18T12:41:05;4.65;;;3.03;;
25810;SDS011;13645;52.460;13.910;2023-09-18T12:43:39;10.32;;;3.60;;
25810;SDS011;13645;52.460;13.910;2023-09-18T12:46:08;6.80;;;3.70;;
25810;SDS011;13645;52.460;13.910;2023-09-18T12:48:41;12.40;;;3.40;;
25810;SDS011;13645;52.460;13.910;2023-09-18T12:51:13;3.72;;;2.85;;
25810;SDS011;13645;52.460;13.910;2023-09-18T12:53:58;10.55;;;3.13;;
25810;SDS011;13645;52.460;13.910;2023-09-18T12:56:26;5.95;;;3.22;;
25810;SDS011;13645;52.460;13.910;2023-09-18T12:58:56;6.07;;;3.30;;
25810;SDS011;13645;52.460;13.910;2023-09-18T13:01:40;9.73;;;2.97;;
25810;SDS011;13645;52.460;13.910;2023-09-18T13:04:12;5.82;;;3.03;;
25810;SDS011;13645;52.460;13.910;2023-09-18T13:07:24;6.07;;;3.30;;
25810;SDS011;13645;52.460;13.910;2023-09-18T13:09:57;3.50;;;2.97;;
25810;SDS011;13645;52.460;13.910;2023-09-18T13:12:39;7.78;;;3.30;;
25810;SDS011;13645;52.460;13.910;2023-09-18T13:15:06;6.53;;;3.22;;
25810;SDS011;13645;52.460;13.910;2023-09-18T13:17:44;6.68;;;3.38;;
25810;SDS011;13645;52.460;13.910;2023-09-18T13:22:40;8.07;;;3.65;;
25810;SDS011;13645;52.460;13.910;2023-09-18T13:25:08;6.47;;;3.10;;
25810;SDS011;13645;52.460;13.910;2023-09-18T13:27:37;4.15;;;2.90;;
25810;SDS011;13645;52.460;13.910;2023-09-18T13:30:08;6.50;;;2.97;;
25810;SDS011;13645;52.460;13.910;2023-09-18T13:32:35;3.95;;;2.95;;
25810;SDS011;13645;52.460;13.910;2023-09-18T13:35:06;9.25;;;3.00;;
25810;SDS011;13645;52.460;13.910;2023-09-18T13:37:34;11.27;;;3.17;;
25810;SDS011;13645;52.460;13.910;2023-09-18T13:40:01;3.95;;;3.17;;
25810;SDS011;13645;52.460;13.910;2023-09-18T13:42:29;6.72;;;3.38;;
25810;SDS011;13645;52.460;13.910;2023-09-18T13:44:57;5.88;;;3.00;;
25810;SDS011;13645;52.460;13.910;2023-09-18T13:47:27;6.95;;;2.80;;
25810;SDS011;13645;52.460;13.910;2023-09-18T13:49:55;3.83;;;3.08;;
25810;SDS011;13645;52.460;13.910;2023-09-18T13:52:27;4.57;;;2.80;;
25810;SDS011;13645;52.460;13.910;2023-09-18T13:54:55;14.15;;;3.78;;
25810;SDS011;13645;52.460;13.910;2023-09-18T13:57:22;12.40;;;7.68;;
25810;SDS011;13645;52.460;13.910;2023-09-18T13:59:50;4.57;;;3.30;;
25810;SDS011;13645;52.460;13.910;2023-09-18T14:02:18;9.32;;;3.30;;
25810;SDS011;13645;52.460;13.910;2023-09-18T14:04:48;6.25;;;3.45;;
25810;SDS011;13645;52.460;13.910;2023-09-18T14:07:27;6.75;;;3.38;;
25810;SDS011;13645;52.460;13.910;2023-09-18T14:09:57;8.07;;;3.55;;
25810;SDS011;13645;52.460;13.910;2023-09-18T14:12:24;14.00;;;4.32;;
25810;SDS011;13645;52.460;13.910;2023-09-18T14:14:54;13.38;;;4.10;;
25810;SDS011;13645;52.460;13.910;2023-09-18T14:17:21;10.27;;;4.03;;
25810;SDS011;13645;52.460;13.910;2023-09-18T14:19:48;4.88;;;3.65;;
25810;SDS011;13645;52.460;13.910;2023-09-18T14:22:15;7.53;;;4.10;;
25810;SDS011;13645;52.460;13.910;2023-09-18T14:24:42;7.97;;;4.38;;
25810;SDS011;13645;52.460;13.910;2023-09-18T14:27:10;10.05;;;4.47;;
25810;SDS011;13645;52.460;13.910;2023-09-18T14:29:38;6.45;;;4.20;;
25810;SDS011;13645;52.460;13.910;2023-09-18T14:32:05;11.40;;;4.03;;
25810;SDS011;13645;52.460;13.910;2023-09-18T14:34:34;9.70;;;4.20;;
25810;SDS011;13645;52.460;13.910;2023-09-18T14:37:02;11.95;;;4.40;;
25810;SDS011;13645;52.460;13.910;2023-09-18T14:39:30;7.63;;;3.88;;
25810;SDS011;13645;52.460;13.910;2023-09-18T14:41:58;8.18;;;3.88;;
25810;SDS011;13645;52.460;13.910;2023-09-18T14:44:29;7.97;;;3.85;;
25810;SDS011;13645;52.460;13.910;2023-09-18T14:46:57;9.07;;;4.30;;
25810;SDS011;13645;52.460;13.910;2023-09-18T14:49:24;12.07;;;4.32;;
25810;SDS011;13645;52.460;13.910;2023-09-18T14:51:56;9.95;;;3.88;;
25810;SDS011;13645;52.460;13.910;2023-09-18T14:54:23;16.02;;;3.90;;
25810;SDS011;13645;52.460;13.910;2023-09-18T14:56:51;10.07;;;3.40;;
25810;SDS011;13645;52.460;13.910;2023-09-18T14:59:18;10.00;;;3.25;;
25810;SDS011;13645;52.460;13.910;2023-09-18T15:02:06;7.70;;;3.08;;
25810;SDS011;13645;52.460;13.910;2023-09-18T15:04:34;11.57;;;3.40;;
25810;SDS011;13645;52.460;13.910;2023-09-18T15:07:02;10.27;;;3.00;;
25810;SDS011;13645;52.460;13.910;2023-09-18T15:09:29;9.63;;;2.80;;
25810;SDS011;13645;52.460;13.910;2023-09-18T15:11:56;11.50;;;3.35;;
25810;SDS011;13645;52.460;13.910;2023-09-18T15:14:23;11.35;;;3.20;;
25810;SDS011;13645;52.460;13.910;2023-09-18T15:16:50;14.95;;;2.80;;